sensor_id;sensor_type;location;lat;lon;timestamp;P1;durP1;ratioP1;P2;durP2;ratioP2
40807;SDS011;26523;52.504;13.498;2022-11-02T00:02:15;14.25;;;6.25;;
40807;SDS011;26523;52.504;13.498;2022-11-02T00:04:41;20.92;;;6.50;;
40807;SDS011;26523;52.504;13.498;2022-11-02T00:07:06;16.60;;;6.80;;
40807;SDS011;26523;52.504;13.498;2022-11-02T00:09:32;13.73;;;5.95;;
40807;SDS011;26523;52.504;13.498;2022-11-02T00:11:58;17.55;;;6.75;;
40807;SDS011;26523;52.504;13.498;2022-11-02T00:14:23;16.90;;;6.88;;
40807;SDS011;26523;52.504;13.498;2022-11-02T00:16:49;19.67;;;6.03;;
40807;SDS011;26523;52.504;13.498;2022-11-02T00:19:15;10.52;;;6.40;;
40807;SDS011;26523;52.504;13.498;2022-11-02T00:21:41;17.95;;;5.75;;
40807;SDS011;26523;52.504;13.498;2022-11-02T00:24:07;14.48;;;6.00;;
40807;SDS011;26523;52.504;13.498;2022-11-02T00:26:35;14.23;;;5.43;;
40807;SDS011;26523;52.504;13.498;2022-11-02T00:29:01;12.30;;;6.10;;
40807;SDS011;26523;52.504;13.498;2022-11-02T00:31:28;11.80;;;5.88;;
40807;SDS011;26523;52.504;13.498;2022-11-02T00:33:54;18.75;;;5.63;;
40807;SDS011;26523;52.504;13.498;2022-11-02T00:36:20;14.13;;;5.90;;
40807;SDS011;26523;52.504;13.498;2022-11-02T00:38:45;9.98;;;5.45;;
40807;SDS011;26523;52.504;13.498;2022-11-02T00:41:11;10.40;;;5.50;;
40807;SDS011;26523;52.504;13.498;2022-11-02T00:43:37;10.88;;;5.28;;
40807;SDS011;26523;52.504;13.498;2022-11-02T00:46:03;11.13;;;5.70;;
40807;SDS011;26523;52.504;13.498;2022-11-02T00:48:28;16.15;;;5.82;;
40807;SDS011;26523;52.504;13.498;2022-11-02T00:50:54;12.85;;;5.40;;
40807;SDS011;26523;52.504;13.498;2022-11-02T00:53:20;10.95;;;5.70;;
40807;SDS011;26523;52.504;13.498;2022-11-02T00:55:45;16.02;;;5.63;;
40807;SDS011;26523;52.504;13.498;2022-11-02T00:58:11;14.73;;;6.28;;
40807;SDS011;26523;52.504;13.498;2022-11-02T01:00:37;14.10;;;5.40;;
40807;SDS011;26523;52.504;13.498;2022-11-02T01:03:03;9.85;;;5.30;;
40807;SDS011;26523;52.504;13.498;2022-11-02T01:05:28;13.02;;;5.60;;
40807;SDS011;26523;52.504;13.498;2022-11-02T01:07:54;14.73;;;6.20;;
40807;SDS011;26523;52.504;13.498;2022-11-02T01:10:21;14.95;;;5.82;;
40807;SDS011;26523;52.504;13.498;2022-11-02T01:12:47;11.73;;;5.32;;
40807;SDS011;26523;52.504;13.498;2022-11-02T01:15:13;13.15;;;5.50;;
40807;SDS011;26523;52.504;13.498;2022-11-02T01:17:38;11.75;;;5.20;;
40807;SDS011;26523;52.504;13.498;2022-11-02T01:20:05;10.82;;;5.30;;
40807;SDS011;26523;52.504;13.498;2022-11-02T01:22:31;14.80;;;6.40;;
40807;SDS011;26523;52.504;13.498;2022-11-02T01:24:57;15.38;;;5.30;;
40807;SDS011;26523;52.504;13.498;2022-11-02T01:27:23;10.18;;;5.47;;
40807;SDS011;26523;52.504;13.498;2022-11-02T01:29:49;12.55;;;6.32;;
40807;SDS011;26523;52.504;13.498;2022-11-02T01:32:14;15.10;;;5.20;;
40807;SDS011;26523;52.504;13.498;2022-11-02T01:34:40;13.40;;;5.93;;
40807;SDS011;26523;52.504;13.498;2022-11-02T01:37:06;10.65;;;4.95;;
40807;SDS011;26523;52.504;13.498;2022-11-02T01:39:31;15.75;;;5.07;;
40807;SDS011;26523;52.504;13.498;2022-11-02T01:41:57;13.43;;;5.53;;
40807;SDS011;26523;52.504;13.498;2022-11-02T01:44:33;11.25;;;4.95;;
40807;SDS011;26523;52.504;13.498;2022-11-02T01:49:31;9.13;;;4.70;;
40807;SDS011;26523;52.504;13.498;2022-11-02T01:52:34;10.07;;;4.25;;
40807;SDS011;26523;52.504;13.498;2022-11-02T01:55:02;8.50;;;4.05;;
40807;SDS011;26523;52.504;13.498;2022-11-02T01:57:37;10.13;;;4.65;;
40807;SDS011;26523;52.504;13.498;2022-11-02T02:00:09;10.40;;;4.10;;
40807;SDS011;26523;52.504;13.498;2022-11-02T02:02:38;9.35;;;4.03;;
40807;SDS011;26523;52.504;13.498;2022-11-02T02:05:10;9.15;;;4.10;;
40807;SDS011;26523;52.504;13.498;2022-11-02T02:07:38;10.55;;;4.32;;
40807;SDS011;26523;52.504;13.498;2022-11-02T02:10:05;13.85;;;4.13;;
40807;SDS011;26523;52.504;13.498;2022-11-02T02:12:31;8.75;;;4.30;;
40807;SDS011;26523;52.504;13.498;2022-11-02T02:14:59;10.48;;;4.72;;
40807;SDS011;26523;52.504;13.498;2022-11-02T02:23:13;7.93;;;3.92;;
40807;SDS011;26523;52.504;13.498;2022-11-02T02:26:22;9.10;;;3.60;;
40807;SDS011;26523;52.504;13.498;2022-11-02T02:28:59;5.18;;;2.75;;
40807;SDS011;26523;52.504;13.498;2022-11-02T02:34:13;13.02;;;3.70;;
40807;SDS011;26523;52.504;13.498;2022-11-02T02:36:46;7.28;;;3.60;;
40807;SDS011;26523;52.504;13.498;2022-11-02T02:40:03;15.70;;;3.42;;
40807;SDS011;26523;52.504;13.498;2022-11-02T02:42:19;6.40;;;2.80;;
40807;SDS011;26523;52.504;13.498;2022-11-02T02:47:57;5.60;;;2.88;;
40807;SDS011;26523;52.504;13.498;2022-11-02T02:50:28;8.02;;;2.65;;
40807;SDS011;26523;52.504;13.498;2022-11-02T02:52:58;12.55;;;3.60;;
40807;SDS011;26523;52.504;13.498;2022-11-02T02:55:30;6.78;;;3.22;;
40807;SDS011;26523;52.504;13.498;2022-11-02T02:58:00;6.13;;;2.67;;
40807;SDS011;26523;52.504;13.498;2022-11-02T03:00:27;7.30;;;3.08;;
40807;SDS011;26523;52.504;13.498;2022-11-02T03:02:54;5.85;;;2.92;;
40807;SDS011;26523;52.504;13.498;2022-11-02T03:05:26;6.47;;;2.50;;
40807;SDS011;26523;52.504;13.498;2022-11-02T03:07:58;10.10;;;3.45;;
40807;SDS011;26523;52.504;13.498;2022-11-02T03:10:28;23.98;;;3.15;;
40807;SDS011;26523;52.504;13.498;2022-11-02T03:16:15;5.25;;;2.17;;
40807;SDS011;26523;52.504;13.498;2022-11-02T03:18:50;6.38;;;2.67;;
40807;SDS011;26523;52.504;13.498;2022-11-02T03:21:23;6.43;;;3.08;;
40807;SDS011;26523;52.504;13.498;2022-11-02T03:23:59;6.20;;;2.53;;
40807;SDS011;26523;52.504;13.498;2022-11-02T03:26:38;8.52;;;2.53;;
40807;SDS011;26523;52.504;13.498;2022-11-02T03:29:14;8.73;;;2.50;;
40807;SDS011;26523;52.504;13.498;2022-11-02T03:31:54;7.85;;;2.35;;
40807;SDS011;26523;52.504;13.498;2022-11-02T03:37:04;12.00;;;3.25;;
40807;SDS011;26523;52.504;13.498;2022-11-02T03:39:48;9.25;;;3.47;;
40807;SDS011;26523;52.504;13.498;2022-11-02T03:42:16;4.88;;;2.38;;
40807;SDS011;26523;52.504;13.498;2022-11-02T03:44:46;9.95;;;2.33;;
40807;SDS011;26523;52.504;13.498;2022-11-02T03:47:15;4.93;;;2.50;;
40807;SDS011;26523;52.504;13.498;2022-11-02T03:49:44;3.67;;;2.03;;
40807;SDS011;26523;52.504;13.498;2022-11-02T03:52:13;6.20;;;2.63;;
40807;SDS011;26523;52.504;13.498;2022-11-02T03:54:45;6.78;;;2.45;;
40807;SDS011;26523;52.504;13.498;2022-11-02T03:57:24;3.92;;;1.70;;
40807;SDS011;26523;52.504;13.498;2022-11-02T04:00:09;9.68;;;2.30;;
40807;SDS011;26523;52.504;13.498;2022-11-02T04:02:38;4.45;;;1.75;;
40807;SDS011;26523;52.504;13.498;2022-11-02T04:05:08;5.18;;;2.17;;
40807;SDS011;26523;52.504;13.498;2022-11-02T04:07:34;7.43;;;1.77;;
40807;SDS011;26523;52.504;13.498;2022-11-02T04:10:21;4.65;;;1.80;;
40807;SDS011;26523;52.504;13.498;2022-11-02T04:12:47;4.22;;;1.75;;
40807;SDS011;26523;52.504;13.498;2022-11-02T04:15:31;5.95;;;1.73;;
40807;SDS011;26523;52.504;13.498;2022-11-02T04:17:57;5.13;;;2.55;;
40807;SDS011;26523;52.504;13.498;2022-11-02T04:20:41;9.48;;;2.13;;
40807;SDS011;26523;52.504;13.498;2022-11-02T04:23:06;3.92;;;2.05;;
40807;SDS011;26523;52.504;13.498;2022-11-02T04:25:53;4.55;;;1.83;;
40807;SDS011;26523;52.504;13.498;2022-11-02T04:28:19;4.75;;;1.70;;
40807;SDS011;26523;52.504;13.498;2022-11-02T04:30:45;3.72;;;2.30;;
40807;SDS011;26523;52.504;13.498;2022-11-02T04:33:10;2.88;;;1.70;;
40807;SDS011;26523;52.504;13.498;2022-11-02T04:35:55;8.02;;;2.00;;
40807;SDS011;26523;52.504;13.498;2022-11-02T04:38:22;7.55;;;2.40;;
40807;SDS011;26523;52.504;13.498;2022-11-02T04:41:07;4.70;;;1.70;;
40807;SDS011;26523;52.504;13.498;2022-11-02T04:43:53;6.00;;;1.77;;
40807;SDS011;26523;52.504;13.498;2022-11-02T04:46:19;5.10;;;2.08;;
40807;SDS011;26523;52.504;13.498;2022-11-02T04:48:46;4.65;;;1.77;;
40807;SDS011;26523;52.504;13.498;2022-11-02T04:51:12;3.70;;;1.50;;
40807;SDS011;26523;52.504;13.498;2022-11-02T04:53:38;4.38;;;1.90;;
40807;SDS011;26523;52.504;13.498;2022-11-02T04:56:04;4.78;;;2.03;;
40807;SDS011;26523;52.504;13.498;2022-11-02T04:58:30;4.93;;;1.92;;
40807;SDS011;26523;52.504;13.498;2022-11-02T05:00:55;6.05;;;1.90;;
40807;SDS011;26523;52.504;13.498;2022-11-02T05:03:21;10.52;;;3.05;;
40807;SDS011;26523;52.504;13.498;2022-11-02T05:05:47;3.30;;;1.60;;
40807;SDS011;26523;52.504;13.498;2022-11-02T05:08:12;4.07;;;1.77;;
40807;SDS011;26523;52.504;13.498;2022-11-02T05:10:38;4.80;;;1.48;;
40807;SDS011;26523;52.504;13.498;2022-11-02T05:13:04;6.38;;;2.05;;
40807;SDS011;26523;52.504;13.498;2022-11-02T05:15:29;11.07;;;1.77;;
40807;SDS011;26523;52.504;13.498;2022-11-02T05:17:55;7.63;;;1.75;;
40807;SDS011;26523;52.504;13.498;2022-11-02T05:20:20;2.58;;;1.60;;
40807;SDS011;26523;52.504;13.498;2022-11-02T05:22:46;6.72;;;2.15;;
40807;SDS011;26523;52.504;13.498;2022-11-02T05:25:12;4.38;;;1.65;;
40807;SDS011;26523;52.504;13.498;2022-11-02T05:27:37;11.27;;;3.03;;
40807;SDS011;26523;52.504;13.498;2022-11-02T05:30:04;6.43;;;1.58;;
40807;SDS011;26523;52.504;13.498;2022-11-02T05:32:30;4.32;;;1.80;;
40807;SDS011;26523;52.504;13.498;2022-11-02T05:34:56;2.85;;;1.30;;
40807;SDS011;26523;52.504;13.498;2022-11-02T05:37:21;5.78;;;1.73;;
40807;SDS011;26523;52.504;13.498;2022-11-02T05:39:47;7.93;;;1.80;;
40807;SDS011;26523;52.504;13.498;2022-11-02T05:42:13;6.43;;;1.90;;
40807;SDS011;26523;52.504;13.498;2022-11-02T05:44:38;8.25;;;1.77;;
40807;SDS011;26523;52.504;13.498;2022-11-02T05:47:04;6.82;;;2.30;;
40807;SDS011;26523;52.504;13.498;2022-11-02T05:49:30;3.47;;;1.38;;
40807;SDS011;26523;52.504;13.498;2022-11-02T05:51:55;10.52;;;2.20;;
40807;SDS011;26523;52.504;13.498;2022-11-02T05:54:21;9.15;;;2.17;;
40807;SDS011;26523;52.504;13.498;2022-11-02T05:56:47;6.20;;;1.42;;
40807;SDS011;26523;52.504;13.498;2022-11-02T05:59:12;3.80;;;1.83;;
40807;SDS011;26523;52.504;13.498;2022-11-02T06:01:38;4.50;;;1.80;;
40807;SDS011;26523;52.504;13.498;2022-11-02T06:04:04;3.60;;;1.85;;
40807;SDS011;26523;52.504;13.498;2022-11-02T06:06:30;4.22;;;1.73;;
40807;SDS011;26523;52.504;13.498;2022-11-02T06:08:56;6.10;;;1.50;;
40807;SDS011;26523;52.504;13.498;2022-11-02T06:11:21;9.57;;;2.03;;
40807;SDS011;26523;52.504;13.498;2022-11-02T06:13:49;3.70;;;1.48;;
40807;SDS011;26523;52.504;13.498;2022-11-02T06:16:15;5.68;;;2.17;;
40807;SDS011;26523;52.504;13.498;2022-11-02T06:18:42;5.32;;;1.90;;
40807;SDS011;26523;52.504;13.498;2022-11-02T06:21:08;5.15;;;1.90;;
40807;SDS011;26523;52.504;13.498;2022-11-02T06:23:34;4.45;;;1.27;;
40807;SDS011;26523;52.504;13.498;2022-11-02T06:26:00;3.85;;;1.40;;
40807;SDS011;26523;52.504;13.498;2022-11-02T06:28:26;10.55;;;1.77;;
40807;SDS011;26523;52.504;13.498;2022-11-02T06:30:53;9.43;;;2.05;;
40807;SDS011;26523;52.504;13.498;2022-11-02T06:33:18;5.90;;;1.98;;
40807;SDS011;26523;52.504;13.498;2022-11-02T06:35:45;14.07;;;1.98;;
40807;SDS011;26523;52.504;13.498;2022-11-02T06:38:12;4.13;;;1.45;;
40807;SDS011;26523;52.504;13.498;2022-11-02T06:40:38;6.85;;;1.65;;
40807;SDS011;26523;52.504;13.498;2022-11-02T06:43:04;6.03;;;1.73;;
40807;SDS011;26523;52.504;13.498;2022-11-02T06:45:30;7.05;;;1.45;;
40807;SDS011;26523;52.504;13.498;2022-11-02T06:47:55;4.43;;;1.17;;
40807;SDS011;26523;52.504;13.498;2022-11-02T06:50:21;10.20;;;2.20;;
40807;SDS011;26523;52.504;13.498;2022-11-02T06:52:48;4.40;;;1.67;;
40807;SDS011;26523;52.504;13.498;2022-11-02T06:55:15;6.63;;;1.38;;
40807;SDS011;26523;52.504;13.498;2022-11-02T06:57:41;6.35;;;2.00;;
40807;SDS011;26523;52.504;13.498;2022-11-02T07:00:09;5.68;;;2.00;;
40807;SDS011;26523;52.504;13.498;2022-11-02T07:02:37;9.73;;;1.88;;
40807;SDS011;26523;52.504;13.498;2022-11-02T07:05:06;3.97;;;1.38;;
40807;SDS011;26523;52.504;13.498;2022-11-02T07:07:32;10.90;;;1.50;;
40807;SDS011;26523;52.504;13.498;2022-11-02T07:09:58;7.47;;;1.77;;
40807;SDS011;26523;52.504;13.498;2022-11-02T07:12:23;3.28;;;1.38;;
40807;SDS011;26523;52.504;13.498;2022-11-02T07:14:49;5.63;;;1.65;;
40807;SDS011;26523;52.504;13.498;2022-11-02T07:17:14;3.42;;;1.55;;
40807;SDS011;26523;52.504;13.498;2022-11-02T07:19:40;8.93;;;1.60;;
40807;SDS011;26523;52.504;13.498;2022-11-02T07:22:06;7.30;;;1.98;;
40807;SDS011;26523;52.504;13.498;2022-11-02T07:24:31;4.45;;;1.92;;
40807;SDS011;26523;52.504;13.498;2022-11-02T07:26:57;6.78;;;1.60;;
40807;SDS011;26523;52.504;13.498;2022-11-02T07:29:22;4.47;;;1.70;;
40807;SDS011;26523;52.504;13.498;2022-11-02T07:31:48;10.43;;;1.75;;
40807;SDS011;26523;52.504;13.498;2022-11-02T07:34:14;2.28;;;0.98;;
40807;SDS011;26523;52.504;13.498;2022-11-02T07:36:39;4.65;;;1.60;;
40807;SDS011;26523;52.504;13.498;2022-11-02T07:39:05;4.82;;;1.70;;
40807;SDS011;26523;52.504;13.498;2022-11-02T07:41:31;20.80;;;2.42;;
40807;SDS011;26523;52.504;13.498;2022-11-02T07:43:58;9.05;;;1.40;;
40807;SDS011;26523;52.504;13.498;2022-11-02T07:46:24;3.30;;;1.70;;
40807;SDS011;26523;52.504;13.498;2022-11-02T07:48:49;10.13;;;2.05;;
40807;SDS011;26523;52.504;13.498;2022-11-02T07:51:15;13.52;;;2.20;;
40807;SDS011;26523;52.504;13.498;2022-11-02T07:53:41;10.52;;;2.40;;
40807;SDS011;26523;52.504;13.498;2022-11-02T07:56:06;4.13;;;1.48;;
40807;SDS011;26523;52.504;13.498;2022-11-02T07:58:32;5.00;;;1.55;;
40807;SDS011;26523;52.504;13.498;2022-11-02T08:00:58;4.15;;;1.50;;
40807;SDS011;26523;52.504;13.498;2022-11-02T08:03:25;7.43;;;1.27;;
40807;SDS011;26523;52.504;13.498;2022-11-02T08:05:51;5.10;;;1.33;;
40807;SDS011;26523;52.504;13.498;2022-11-02T08:08:18;10.68;;;1.73;;
40807;SDS011;26523;52.504;13.498;2022-11-02T08:10:46;2.97;;;1.63;;
40807;SDS011;26523;52.504;13.498;2022-11-02T08:13:14;6.50;;;1.33;;
40807;SDS011;26523;52.504;13.498;2022-11-02T08:15:44;5.18;;;1.15;;
40807;SDS011;26523;52.504;13.498;2022-11-02T08:18:14;5.65;;;1.27;;
40807;SDS011;26523;52.504;13.498;2022-11-02T08:20:41;7.15;;;1.67;;
40807;SDS011;26523;52.504;13.498;2022-11-02T08:23:08;7.32;;;2.08;;
40807;SDS011;26523;52.504;13.498;2022-11-02T08:25:35;7.05;;;1.73;;
40807;SDS011;26523;52.504;13.498;2022-11-02T08:28:02;3.63;;;1.60;;
40807;SDS011;26523;52.504;13.498;2022-11-02T08:30:29;7.85;;;1.20;;
40807;SDS011;26523;52.504;13.498;2022-11-02T08:33:01;4.80;;;1.45;;
40807;SDS011;26523;52.504;13.498;2022-11-02T08:35:28;6.75;;;1.45;;
40807;SDS011;26523;52.504;13.498;2022-11-02T08:37:54;6.38;;;1.23;;
40807;SDS011;26523;52.504;13.498;2022-11-02T08:40:20;2.92;;;1.13;;
40807;SDS011;26523;52.504;13.498;2022-11-02T08:42:46;8.35;;;1.35;;
40807;SDS011;26523;52.504;13.498;2022-11-02T08:45:12;6.07;;;1.67;;
40807;SDS011;26523;52.504;13.498;2022-11-02T08:47:40;4.32;;;1.65;;
40807;SDS011;26523;52.504;13.498;2022-11-02T08:50:10;3.25;;;1.45;;
40807;SDS011;26523;52.504;13.498;2022-11-02T08:52:36;3.55;;;1.30;;
40807;SDS011;26523;52.504;13.498;2022-11-02T08:55:02;6.18;;;1.45;;
40807;SDS011;26523;52.504;13.498;2022-11-02T08:57:29;8.00;;;1.27;;
40807;SDS011;26523;52.504;13.498;2022-11-02T08:59:54;6.72;;;2.03;;
40807;SDS011;26523;52.504;13.498;2022-11-02T09:02:20;2.83;;;1.05;;
40807;SDS011;26523;52.504;13.498;2022-11-02T09:04:45;4.22;;;1.17;;
40807;SDS011;26523;52.504;13.498;2022-11-02T09:07:12;6.82;;;1.00;;
40807;SDS011;26523;52.504;13.498;2022-11-02T09:09:38;4.13;;;1.25;;
40807;SDS011;26523;52.504;13.498;2022-11-02T09:12:03;13.02;;;1.58;;
40807;SDS011;26523;52.504;13.498;2022-11-02T09:14:29;3.65;;;1.30;;
40807;SDS011;26523;52.504;13.498;2022-11-02T09:16:55;7.10;;;1.10;;
40807;SDS011;26523;52.504;13.498;2022-11-02T09:19:20;3.10;;;1.20;;
40807;SDS011;26523;52.504;13.498;2022-11-02T09:21:46;7.75;;;1.13;;
40807;SDS011;26523;52.504;13.498;2022-11-02T09:24:15;7.07;;;1.20;;
40807;SDS011;26523;52.504;13.498;2022-11-02T09:26:41;8.75;;;1.20;;
40807;SDS011;26523;52.504;13.498;2022-11-02T09:29:06;2.78;;;1.10;;
40807;SDS011;26523;52.504;13.498;2022-11-02T09:31:32;3.78;;;1.30;;
40807;SDS011;26523;52.504;13.498;2022-11-02T09:33:57;7.68;;;1.30;;
40807;SDS011;26523;52.504;13.498;2022-11-02T09:36:23;5.00;;;1.45;;
40807;SDS011;26523;52.504;13.498;2022-11-02T09:38:49;4.03;;;1.48;;
40807;SDS011;26523;52.504;13.498;2022-11-02T09:43:52;2.70;;;0.80;;
40807;SDS011;26523;52.504;13.498;2022-11-02T09:46:37;9.18;;;1.35;;
40807;SDS011;26523;52.504;13.498;2022-11-02T09:49:09;6.72;;;1.30;;
40807;SDS011;26523;52.504;13.498;2022-11-02T09:54:26;7.00;;;1.48;;
40807;SDS011;26523;52.504;13.498;2022-11-02T09:57:44;1.40;;;0.70;;
40807;SDS011;26523;52.504;13.498;2022-11-02T09:59:50;5.03;;;0.98;;
40807;SDS011;26523;52.504;13.498;2022-11-02T10:10:38;9.23;;;1.38;;
40807;SDS011;26523;52.504;13.498;2022-11-02T10:15:51;6.70;;;1.17;;
40807;SDS011;26523;52.504;13.498;2022-11-02T10:18:25;7.15;;;1.20;;
40807;SDS011;26523;52.504;13.498;2022-11-02T10:20:59;1.85;;;0.95;;
40807;SDS011;26523;52.504;13.498;2022-11-02T10:23:33;2.67;;;0.68;;
40807;SDS011;26523;52.504;13.498;2022-11-02T10:26:03;6.65;;;0.90;;
40807;SDS011;26523;52.504;13.498;2022-11-02T10:28:30;4.32;;;0.80;;
40807;SDS011;26523;52.504;13.498;2022-11-02T10:31:00;6.30;;;1.20;;
40807;SDS011;26523;52.504;13.498;2022-11-02T10:33:27;8.23;;;1.98;;
40807;SDS011;26523;52.504;13.498;2022-11-02T10:40:59;13.32;;;1.83;;
40807;SDS011;26523;52.504;13.498;2022-11-02T10:52:08;6.35;;;1.10;;
40807;SDS011;26523;52.504;13.498;2022-11-02T10:54:37;6.55;;;1.13;;
40807;SDS011;26523;52.504;13.498;2022-11-02T10:57:10;6.57;;;1.33;;
40807;SDS011;26523;52.504;13.498;2022-11-02T10:59:37;5.05;;;1.23;;
40807;SDS011;26523;52.504;13.498;2022-11-02T11:02:07;13.40;;;1.17;;
40807;SDS011;26523;52.504;13.498;2022-11-02T11:04:36;3.17;;;0.98;;
40807;SDS011;26523;52.504;13.498;2022-11-02T11:07:05;4.82;;;1.83;;
40807;SDS011;26523;52.504;13.498;2022-11-02T11:09:50;7.82;;;1.20;;
40807;SDS011;26523;52.504;13.498;2022-11-02T11:12:23;5.65;;;1.35;;
40807;SDS011;26523;52.504;13.498;2022-11-02T11:14:55;6.22;;;1.30;;
40807;SDS011;26523;52.504;13.498;2022-11-02T11:17:23;7.43;;;1.80;;
40807;SDS011;26523;52.504;13.498;2022-11-02T11:19:59;3.50;;;1.17;;
40807;SDS011;26523;52.504;13.498;2022-11-02T11:27:50;7.35;;;1.55;;
40807;SDS011;26523;52.504;13.498;2022-11-02T11:30:36;10.98;;;1.40;;
40807;SDS011;26523;52.504;13.498;2022-11-02T11:35:36;7.53;;;1.45;;
40807;SDS011;26523;52.504;13.498;2022-11-02T11:38:05;8.13;;;1.02;;
40807;SDS011;26523;52.504;13.498;2022-11-02T11:40:34;3.65;;;0.88;;
40807;SDS011;26523;52.504;13.498;2022-11-02T11:43:02;5.28;;;1.38;;
40807;SDS011;26523;52.504;13.498;2022-11-02T11:45:34;7.93;;;1.23;;
40807;SDS011;26523;52.504;13.498;2022-11-02T11:50:54;4.50;;;1.25;;
40807;SDS011;26523;52.504;13.498;2022-11-02T11:53:24;5.32;;;1.05;;
40807;SDS011;26523;52.504;13.498;2022-11-02T11:55:51;3.88;;;1.75;;
40807;SDS011;26523;52.504;13.498;2022-11-02T11:58:31;2.92;;;0.95;;
40807;SDS011;26523;52.504;13.498;2022-11-02T12:01:03;2.88;;;0.75;;
40807;SDS011;26523;52.504;13.498;2022-11-02T12:03:50;11.95;;;1.40;;
40807;SDS011;26523;52.504;13.498;2022-11-02T12:09:17;4.10;;;0.85;;
40807;SDS011;26523;52.504;13.498;2022-11-02T12:14:46;16.75;;;1.77;;
40807;SDS011;26523;52.504;13.498;2022-11-02T12:17:34;5.50;;;0.93;;
40807;SDS011;26523;52.504;13.498;2022-11-02T12:20:12;4.53;;;0.93;;
40807;SDS011;26523;52.504;13.498;2022-11-02T12:26:13;4.72;;;1.35;;
40807;SDS011;26523;52.504;13.498;2022-11-02T12:28:57;4.30;;;0.65;;
40807;SDS011;26523;52.504;13.498;2022-11-02T12:31:41;2.50;;;0.70;;
40807;SDS011;26523;52.504;13.498;2022-11-02T12:37:28;6.43;;;1.00;;
40807;SDS011;26523;52.504;13.498;2022-11-02T12:40:29;5.85;;;1.25;;
40807;SDS011;26523;52.504;13.498;2022-11-02T12:46:24;8.15;;;1.17;;
40807;SDS011;26523;52.504;13.498;2022-11-02T12:54:56;2.78;;;0.60;;
40807;SDS011;26523;52.504;13.498;2022-11-02T12:57:22;7.50;;;1.27;;
40807;SDS011;26523;52.504;13.498;2022-11-02T12:59:52;2.35;;;1.05;;
40807;SDS011;26523;52.504;13.498;2022-11-02T13:02:25;6.03;;;1.10;;
40807;SDS011;26523;52.504;13.498;2022-11-02T13:05:07;8.48;;;1.23;;
40807;SDS011;26523;52.504;13.498;2022-11-02T13:07:40;13.65;;;1.10;;
40807;SDS011;26523;52.504;13.498;2022-11-02T13:10:14;8.73;;;1.40;;
40807;SDS011;26523;52.504;13.498;2022-11-02T13:12:41;4.63;;;0.85;;
40807;SDS011;26523;52.504;13.498;2022-11-02T13:15:12;4.13;;;0.88;;
40807;SDS011;26523;52.504;13.498;2022-11-02T13:17:48;3.00;;;1.40;;
40807;SDS011;26523;52.504;13.498;2022-11-02T13:20:25;3.00;;;0.75;;
40807;SDS011;26523;52.504;13.498;2022-11-02T13:23:01;3.13;;;1.00;;
40807;SDS011;26523;52.504;13.498;2022-11-02T13:25:46;6.55;;;1.10;;
40807;SDS011;26523;52.504;13.498;2022-11-02T13:28:22;7.35;;;1.08;;
40807;SDS011;26523;52.504;13.498;2022-11-02T13:31:16;4.25;;;0.93;;
40807;SDS011;26523;52.504;13.498;2022-11-02T13:33:52;10.50;;;1.52;;
40807;SDS011;26523;52.504;13.498;2022-11-02T13:36:19;8.30;;;0.90;;
40807;SDS011;26523;52.504;13.498;2022-11-02T13:38:47;2.10;;;1.05;;
40807;SDS011;26523;52.504;13.498;2022-11-02T13:44:01;1.95;;;0.80;;
40807;SDS011;26523;52.504;13.498;2022-11-02T13:47:21;3.97;;;1.30;;
40807;SDS011;26523;52.504;13.498;2022-11-02T13:49:28;9.18;;;1.52;;
40807;SDS011;26523;52.504;13.498;2022-11-02T13:51:59;5.03;;;0.90;;
40807;SDS011;26523;52.504;13.498;2022-11-02T13:57:34;4.78;;;1.77;;
40807;SDS011;26523;52.504;13.498;2022-11-02T14:00:05;5.53;;;0.93;;
40807;SDS011;26523;52.504;13.498;2022-11-02T14:02:57;3.67;;;1.02;;
40807;SDS011;26523;52.504;13.498;2022-11-02T14:05:34;8.35;;;1.00;;
40807;SDS011;26523;52.504;13.498;2022-11-02T14:08:09;8.77;;;1.00;;
40807;SDS011;26523;52.504;13.498;2022-11-02T14:10:44;14.90;;;1.48;;
40807;SDS011;26523;52.504;13.498;2022-11-02T14:34:51;5.13;;;1.00;;
40807;SDS011;26523;52.504;13.498;2022-11-02T14:48:45;5.70;;;0.93;;
40807;SDS011;26523;52.504;13.498;2022-11-02T14:51:20;6.15;;;1.25;;
40807;SDS011;26523;52.504;13.498;2022-11-02T14:54:01;3.33;;;1.13;;
40807;SDS011;26523;52.504;13.498;2022-11-02T14:56:45;3.03;;;0.95;;
40807;SDS011;26523;52.504;13.498;2022-11-02T14:59:15;7.45;;;1.30;;
40807;SDS011;26523;52.504;13.498;2022-11-02T15:01:49;5.30;;;1.15;;
40807;SDS011;26523;52.504;13.498;2022-11-02T15:04:23;2.42;;;1.08;;
40807;SDS011;26523;52.504;13.498;2022-11-02T15:06:54;4.97;;;1.33;;
40807;SDS011;26523;52.504;13.498;2022-11-02T15:12:36;4.35;;;1.55;;
40807;SDS011;26523;52.504;13.498;2022-11-02T15:22:40;6.55;;;1.60;;
40807;SDS011;26523;52.504;13.498;2022-11-02T15:25:39;7.57;;;1.83;;
40807;SDS011;26523;52.504;13.498;2022-11-02T15:28:14;4.85;;;1.15;;
40807;SDS011;26523;52.504;13.498;2022-11-02T15:30:43;13.15;;;1.33;;
40807;SDS011;26523;52.504;13.498;2022-11-02T15:33:34;5.28;;;1.17;;
40807;SDS011;26523;52.504;13.498;2022-11-02T15:36:07;1.77;;;0.88;;
40807;SDS011;26523;52.504;13.498;2022-11-02T15:38:48;2.83;;;1.15;;
40807;SDS011;26523;52.504;13.498;2022-11-02T15:41:18;7.43;;;1.40;;
40807;SDS011;26523;52.504;13.498;2022-11-02T15:58:36;5.18;;;1.20;;
40807;SDS011;26523;52.504;13.498;2022-11-02T16:01:23;3.60;;;0.82;;
40807;SDS011;26523;52.504;13.498;2022-11-02T16:03:53;7.72;;;1.42;;
40807;SDS011;26523;52.504;13.498;2022-11-02T16:06:25;7.15;;;1.58;;
40807;SDS011;26523;52.504;13.498;2022-11-02T16:09:02;3.47;;;1.13;;
40807;SDS011;26523;52.504;13.498;2022-11-02T16:12:10;7.00;;;1.20;;
40807;SDS011;26523;52.504;13.498;2022-11-02T16:14:42;5.35;;;1.27;;
40807;SDS011;26523;52.504;13.498;2022-11-02T16:17:29;2.97;;;1.05;;
40807;SDS011;26523;52.504;13.498;2022-11-02T16:22:56;4.15;;;0.98;;
40807;SDS011;26523;52.504;13.498;2022-11-02T16:25:30;11.15;;;1.00;;
40807;SDS011;26523;52.504;13.498;2022-11-02T16:28:48;5.78;;;1.10;;
40807;SDS011;26523;52.504;13.498;2022-11-02T16:33:37;7.35;;;1.73;;
40807;SDS011;26523;52.504;13.498;2022-11-02T16:36:05;4.35;;;1.00;;
40807;SDS011;26523;52.504;13.498;2022-11-02T16:38:34;4.05;;;1.10;;
40807;SDS011;26523;52.504;13.498;2022-11-02T16:41:00;7.13;;;1.70;;
40807;SDS011;26523;52.504;13.498;2022-11-02T16:43:27;7.97;;;1.60;;
40807;SDS011;26523;52.504;13.498;2022-11-02T16:45:59;2.35;;;1.05;;
40807;SDS011;26523;52.504;13.498;2022-11-02T16:48:29;4.63;;;2.13;;
40807;SDS011;26523;52.504;13.498;2022-11-02T16:53:31;2.57;;;1.47;;
40807;SDS011;26523;52.504;13.498;2022-11-02T16:56:12;6.22;;;1.02;;
40807;SDS011;26523;52.504;13.498;2022-11-02T16:58:43;5.18;;;1.67;;
40807;SDS011;26523;52.504;13.498;2022-11-02T17:01:33;2.58;;;0.98;;
40807;SDS011;26523;52.504;13.498;2022-11-02T17:04:20;6.32;;;1.23;;
40807;SDS011;26523;52.504;13.498;2022-11-02T17:06:48;2.70;;;1.20;;
40807;SDS011;26523;52.504;13.498;2022-11-02T17:11:55;4.32;;;1.27;;
40807;SDS011;26523;52.504;13.498;2022-11-02T17:14:23;4.38;;;1.38;;
40807;SDS011;26523;52.504;13.498;2022-11-02T17:22:12;5.93;;;1.20;;
40807;SDS011;26523;52.504;13.498;2022-11-02T17:24:40;5.20;;;1.77;;
40807;SDS011;26523;52.504;13.498;2022-11-02T17:27:16;6.07;;;1.50;;
40807;SDS011;26523;52.504;13.498;2022-11-02T17:29:47;4.97;;;1.30;;
40807;SDS011;26523;52.504;13.498;2022-11-02T17:32:13;6.93;;;1.50;;
40807;SDS011;26523;52.504;13.498;2022-11-02T17:34:47;5.90;;;1.83;;